Time;durP1;ratioP1;P1;durP2;ratioP2;P2;SDS_P1;SDS_P2;PMS_P1;PMS_P2;Temp;Humidity;BMP_temperature;BMP_pressure;BME280_temperature;BME280_humidity;BME280_pressure;Samples;Min_cycle;Max_cycle;Signal;HPM_P1;HPM_P2
2024/03/24 00:01:29;;;;;;;;;;;;;;;13.17;45.33;97789.16;67966;1276;1016464;-68
2024/03/24 00:04:33;;;;;;;;;;;;;;;13.10;45.43;97788.00;67926;1276;1017546;-67
2024/03/24 00:07:38;;;;;;;;;;;;;;;13.11;45.40;97782.42;67938;1276;1016514;-66
2024/03/24 00:10:42;;;;;;;;;;;;;;;13.05;45.55;97784.05;67977;1276;1016352;-64
2024/03/24 00:13:47;;;;;;;;;;;;;;;12.98;45.68;97791.49;67990;1276;1016327;-67
2024/03/24 00:16:52;;;;;;;;;;;;;;;12.92;45.71;97796.26;67926;1276;1015956;-67
2024/03/24 00:19:58;;;;;;;;;;;;;;;13.01;45.37;97793.71;67932;1276;1016561;-63
2024/03/24 00:23:02;;;;;;;;;;;;;;;13.00;45.34;97795.52;67947;1276;1016233;-61
2024/03/24 00:26:06;;;;;;;;;;;;;;;12.96;45.27;97795.73;67994;1276;1016365;-67
2024/03/24 00:29:10;;;;;;;;;;;;;;;12.82;45.74;97796.73;67958;1275;1016404;-68
2024/03/24 00:32:15;;;;;;;;;;;;;;;12.87;45.53;97799.10;67966;1276;1019486;-68
2024/03/24 00:35:20;;;;;;;;;;;;;;;12.92;45.33;97800.47;67860;1276;1016388;-67
2024/03/24 00:38:25;;;;;;;;;;;;;;;12.81;45.43;97806.52;67982;1276;1016304;-67
2024/03/24 00:41:31;;;;;;;;;;;;;;;12.75;45.46;97801.35;67972;1276;1016465;-68
2024/03/24 00:44:35;;;;;;;;;;;;;;;12.68;45.69;97804.11;67967;1276;1016514;-67
2024/03/24 00:47:41;;;;;;;;;;;;;;;12.24;46.32;97805.21;67832;1276;1016606;-64
2024/03/24 00:50:46;;;;;;;;;;;;;;;11.99;47.28;97791.67;67910;1276;1016890;-67
2024/03/24 00:53:53;;;;;;;;;;;;;;;12.04;47.04;97789.15;67940;1276;1016774;-64
2024/03/24 00:56:58;;;;;;;;;;;;;;;12.05;47.16;97777.49;67890;1276;1016194;-63
2024/03/24 01:00:04;;;;;;;;;;;;;;;12.13;46.88;97755.78;67944;1276;1016368;-61
2024/03/24 01:03:11;;;;;;;;;;;;;;;12.15;46.97;97743.37;67988;1276;1016256;-68
2024/03/24 01:06:15;;;;;;;;;;;;;;;12.23;46.64;97730.30;67935;1276;1015868;-68
2024/03/24 01:09:20;;;;;;;;;;;;;;;12.21;46.65;97719.15;67974;1276;1016400;-68
2024/03/24 01:12:24;;;;;;;;;;;;;;;12.02;47.03;97716.02;67933;1276;1016368;-67
2024/03/24 01:15:30;;;;;;;;;;;;;;;12.07;46.99;97720.91;67956;1276;1016206;-68
2024/03/24 01:18:35;;;;;;;;;;;;;;;12.13;47.01;97726.19;67981;1276;1016384;-67
2024/03/24 01:21:40;;;;;;;;;;;;;;;12.47;46.53;97729.45;67843;1276;1016345;-67
2024/03/24 01:24:45;;;;;;;;;;;;;;;13.20;45.01;97737.60;67994;1276;1016478;-68
2024/03/24 01:27:49;;;;;;;;;;;;;;;12.89;45.53;97747.57;67996;1276;1016446;-67
2024/03/24 01:30:54;;;;;;;;;;;;;;;13.12;45.14;97749.42;67948;1275;1016383;-64
2024/03/24 01:33:58;;;;;;;;;;;;;;;13.08;45.06;97734.44;67868;1276;1019608;-67
2024/03/24 01:37:03;;;;;;;;;;;;;;;13.21;44.93;97729.50;67897;1276;1016149;-64
2024/03/24 01:40:08;;;;;;;;;;;;;;;13.06;45.16;97736.77;68004;1276;1017526;-68
2024/03/24 01:43:13;;;;;;;;;;;;;;;13.03;45.31;97742.48;67860;1276;1016424;-67
2024/03/24 01:46:19;;;;;;;;;;;;;;;13.17;45.03;97740.56;67970;1276;1016406;-63
2024/03/24 01:49:23;;;;;;;;;;;;;;;13.25;44.84;97744.80;67954;1276;1016103;-61
2024/03/24 01:52:26;;;;;;;;;;;;;;;13.36;44.63;97748.70;67974;1276;1016214;-61
2024/03/24 01:55:31;;;;;;;;;;;;;;;13.27;44.77;97746.52;67969;1276;1019460;-68
2024/03/24 01:58:35;;;;;;;;;;;;;;;13.37;44.47;97740.15;67965;1276;1015928;-67
2024/03/24 02:01:40;;;;;;;;;;;;;;;13.32;44.72;97737.63;67981;1276;1016180;-66
2024/03/24 02:04:45;;;;;;;;;;;;;;;13.30;44.73;97741.86;67977;1276;1016750;-62
2024/03/24 02:07:51;;;;;;;;;;;;;;;13.29;45.10;97744.74;67959;1276;1016001;-67
2024/03/24 02:10:55;;;;;;;;;;;;;;;13.63;44.35;97744.01;67941;1276;1017939;-67
2024/03/24 02:13:58;;;;;;;;;;;;;;;13.64;44.35;97747.80;67929;1276;1016345;-67
2024/03/24 02:17:01;;;;;;;;;;;;;;;13.76;44.11;97748.30;67986;1276;1016276;-68
2024/03/24 02:20:08;;;;;;;;;;;;;;;13.66;44.00;97745.70;67995;1276;1015979;-66
2024/03/24 02:23:12;;;;;;;;;;;;;;;13.68;44.18;97748.83;67935;1276;1016297;-64
2024/03/24 02:26:16;;;;;;;;;;;;;;;13.55;44.33;97751.45;67968;1276;1016380;-67
2024/03/24 02:29:20;;;;;;;;;;;;;;;13.82;44.12;97755.84;67943;1276;1016330;-67
2024/03/24 02:32:25;;;;;;;;;;;;;;;13.78;43.99;97754.80;67982;1276;1016478;-67
2024/03/24 02:35:29;;;;;;;;;;;;;;;13.61;44.26;97753.83;67944;1276;1016718;-67
2024/03/24 02:38:34;;;;;;;;;;;;;;;13.54;44.31;97746.77;67909;1276;1016531;-61
2024/03/24 02:41:38;;;;;;;;;;;;;;;13.39;44.34;97744.02;67869;1276;1016343;-64
2024/03/24 02:44:42;;;;;;;;;;;;;;;13.29;44.20;97736.48;68005;1276;1016412;-67
2024/03/24 02:47:47;;;;;;;;;;;;;;;13.23;44.20;97732.13;67939;1276;1017039;-67
2024/03/24 02:50:52;;;;;;;;;;;;;;;13.04;44.27;97729.79;67956;1276;1016143;-63
2024/03/24 02:53:57;;;;;;;;;;;;;;;12.90;44.15;97721.90;67991;1276;1016460;-67
2024/03/24 02:57:02;;;;;;;;;;;;;;;12.78;44.22;97721.50;67951;1276;1017463;-66
2024/03/24 03:00:09;;;;;;;;;;;;;;;12.59;44.54;97717.74;67981;1276;1016851;-66
2024/03/24 03:03:15;;;;;;;;;;;;;;;12.54;44.61;97720.80;67976;1276;1016446;-61
2024/03/24 03:06:20;;;;;;;;;;;;;;;12.64;44.24;97723.10;67901;1276;1017003;-68
2024/03/24 03:09:26;;;;;;;;;;;;;;;12.82;43.95;97725.86;67858;1276;1016529;-67
2024/03/24 03:12:30;;;;;;;;;;;;;;;12.83;44.03;97731.77;67959;1276;1015928;-67
2024/03/24 03:15:36;;;;;;;;;;;;;;;12.95;43.87;97735.13;67992;1276;1016385;-67
2024/03/24 03:18:41;;;;;;;;;;;;;;;13.08;43.70;97736.25;67981;1276;1016084;-67
2024/03/24 03:21:47;;;;;;;;;;;;;;;13.12;43.53;97735.89;67940;1276;1016363;-67
2024/03/24 03:24:57;;;;;;;;;;;;;;;13.06;43.42;97740.44;68001;1276;1016256;-67
2024/03/24 03:28:02;;;;;;;;;;;;;;;12.53;44.04;97741.36;67975;1276;1016193;-67
2024/03/24 03:31:08;;;;;;;;;;;;;;;12.59;43.87;97742.11;67988;1276;1016108;-61
2024/03/24 03:34:14;;;;;;;;;;;;;;;12.69;43.89;97739.67;67991;1276;1018080;-65
2024/03/24 03:37:19;;;;;;;;;;;;;;;12.61;44.07;97738.02;67981;1276;1016523;-62
2024/03/24 03:40:24;;;;;;;;;;;;;;;12.68;44.00;97743.05;67930;1276;1015819;-62
2024/03/24 03:43:29;;;;;;;;;;;;;;;12.49;44.27;97745.02;67930;1276;1016113;-67
2024/03/24 03:46:34;;;;;;;;;;;;;;;12.48;44.27;97745.65;68011;1276;1016426;-62
2024/03/24 03:49:39;;;;;;;;;;;;;;;12.39;44.35;97743.23;67961;1276;1016505;-61
2024/03/24 03:52:47;;;;;;;;;;;;;;;12.37;44.37;97747.45;67995;1276;1016394;-62
2024/03/24 03:55:52;;;;;;;;;;;;;;;12.33;44.32;97746.98;67973;1276;1015839;-67
2024/03/24 03:58:57;;;;;;;;;;;;;;;12.32;44.23;97748.27;67976;1276;1015980;-67
2024/03/24 04:02:03;;;;;;;;;;;;;;;12.16;44.65;97751.15;67977;1276;1016478;-67
2024/03/24 04:05:09;;;;;;;;;;;;;;;12.19;44.65;97752.30;67969;1276;1016256;-66
2024/03/24 04:08:15;;;;;;;;;;;;;;;12.26;44.70;97748.55;67955;1276;1016528;-67
2024/03/24 04:11:20;;;;;;;;;;;;;;;12.42;44.43;97747.41;68007;1276;1017049;-67
2024/03/24 04:14:25;;;;;;;;;;;;;;;12.44;44.33;97748.05;67948;1276;1016363;-67
2024/03/24 04:17:30;;;;;;;;;;;;;;;12.45;44.33;97740.79;67996;1276;1016347;-67
2024/03/24 04:20:34;;;;;;;;;;;;;;;12.58;44.00;97738.46;67993;1276;1016448;-66
2024/03/24 04:23:39;;;;;;;;;;;;;;;12.49;44.14;97742.92;67973;1276;1016076;-62
2024/03/24 04:26:44;;;;;;;;;;;;;;;12.22;44.67;97743.13;67953;1276;1016254;-66
2024/03/24 04:29:48;;;;;;;;;;;;;;;12.21;44.62;97741.85;67998;1276;1018112;-67
2024/03/24 04:32:54;;;;;;;;;;;;;;;12.29;44.57;97739.76;67940;1276;1016170;-64
2024/03/24 04:35:58;;;;;;;;;;;;;;;12.36;44.46;97738.11;67892;1276;1016157;-67
2024/03/24 04:39:03;;;;;;;;;;;;;;;12.19;44.87;97733.18;67996;1276;1018903;-67
2024/03/24 04:42:09;;;;;;;;;;;;;;;12.10;45.06;97734.34;68003;1276;1016434;-67
2024/03/24 04:45:13;;;;;;;;;;;;;;;12.06;45.06;97727.15;67950;1276;1016529;-65
2024/03/24 04:48:18;;;;;;;;;;;;;;;12.16;44.70;97724.37;67960;1276;1016339;-67
2024/03/24 04:51:24;;;;;;;;;;;;;;;12.31;44.49;97722.73;67992;1276;1016225;-67
2024/03/24 04:54:29;;;;;;;;;;;;;;;12.19;44.69;97724.66;67984;1276;1016341;-67
2024/03/24 04:57:34;;;;;;;;;;;;;;;12.18;44.77;97722.24;67969;1276;1016195;-64
2024/03/24 05:00:39;;;;;;;;;;;;;;;12.30;44.74;97720.76;67981;1276;1016406;-67
2024/03/24 05:03:44;;;;;;;;;;;;;;;12.39;44.49;97720.24;67939;1276;1016548;-62
2024/03/24 05:06:49;;;;;;;;;;;;;;;12.32;44.62;97717.52;67993;1276;1016247;-67
2024/03/24 05:09:54;;;;;;;;;;;;;;;12.43;44.39;97711.91;67966;1276;1017087;-63
2024/03/24 05:12:59;;;;;;;;;;;;;;;11.66;46.02;97714.61;67936;1276;1016408;-62
2024/03/24 05:16:07;;;;;;;;;;;;;;;11.61;46.16;97709.84;68018;1276;1016130;-65
2024/03/24 05:19:11;;;;;;;;;;;;;;;12.04;45.37;97710.06;68010;1276;1016523;-66
2024/03/24 05:22:16;;;;;;;;;;;;;;;12.52;44.63;97706.56;67989;1276;1016396;-67
2024/03/24 05:25:21;;;;;;;;;;;;;;;12.82;44.32;97704.17;68000;1276;1016530;-67
2024/03/24 05:28:25;;;;;;;;;;;;;;;13.04;44.07;97705.36;67875;1276;1016352;-66
2024/03/24 05:31:29;;;;;;;;;;;;;;;13.16;43.82;97705.70;68015;1276;1015780;-67
2024/03/24 05:34:32;;;;;;;;;;;;;;;13.27;43.61;97707.52;67971;1276;1016104;-67
2024/03/24 05:37:37;;;;;;;;;;;;;;;12.90;44.67;97710.84;68029;1276;1016255;-67
2024/03/24 05:40:42;;;;;;;;;;;;;;;12.65;45.24;97714.73;67977;1276;1016199;-67
2024/03/24 05:43:46;;;;;;;;;;;;;;;12.67;45.34;97711.20;67972;1276;1016255;-68
2024/03/24 05:46:51;;;;;;;;;;;;;;;13.09;44.53;97712.63;67967;1276;1016520;-61
2024/03/24 05:49:56;;;;;;;;;;;;;;;13.25;44.06;97709.11;67960;1276;1016983;-67
2024/03/24 05:52:59;;;;;;;;;;;;;;;13.47;43.41;97711.92;67999;1276;1016301;-67
2024/03/24 05:56:02;;;;;;;;;;;;;;;12.73;44.85;97722.42;67940;1276;1016402;-67
2024/03/24 05:59:07;;;;;;;;;;;;;;;12.28;45.99;97719.48;67933;1276;1016352;-62
2024/03/24 06:02:11;;;;;;;;;;;;;;;12.33;46.29;97719.36;65289;1276;6498899;-67
2024/03/24 06:05:16;;;;;;;;;;;;;;;12.43;46.62;97717.16;67885;1276;1016536;-67
2024/03/24 06:08:22;;;;;;;;;;;;;;;12.78;45.68;97714.30;67986;1276;1016362;-67
2024/03/24 06:11:29;;;;;;;;;;;;;;;12.74;45.33;97715.01;67945;1276;1016209;-67
2024/03/24 06:14:33;;;;;;;;;;;;;;;12.54;45.80;97707.48;67980;1276;1016546;-65
2024/03/24 06:17:35;;;;;;;;;;;;;;;12.55;46.05;97708.05;67973;1276;1016502;-67
2024/03/24 06:20:38;;;;;;;;;;;;;;;12.69;46.20;97709.64;67955;1276;1016152;-67
2024/03/24 06:23:40;;;;;;;;;;;;;;;12.96;45.42;97716.08;68005;1276;1016403;-67
2024/03/24 06:26:42;;;;;;;;;;;;;;;13.18;45.55;97709.19;67942;1276;1016264;-67
2024/03/24 06:29:46;;;;;;;;;;;;;;;13.19;44.96;97716.30;67959;1276;1018759;-62
2024/03/24 06:32:48;;;;;;;;;;;;;;;13.60;43.93;97708.59;67996;1276;1016478;-67
2024/03/24 06:35:50;;;;;;;;;;;;;;;13.83;43.74;97714.42;67999;1273;1016516;-67
2024/03/24 06:38:53;;;;;;;;;;;;;;;13.85;43.06;97716.02;67992;1276;1016034;-67
2024/03/24 06:41:56;;;;;;;;;;;;;;;14.11;43.03;97716.46;67979;1276;1017302;-62
2024/03/24 06:45:05;;;;;;;;;;;;;;;13.93;42.97;97721.94;67967;1276;1016198;-64
2024/03/24 06:48:08;;;;;;;;;;;;;;;13.88;43.17;97721.34;68007;1276;1016375;-67
2024/03/24 06:51:10;;;;;;;;;;;;;;;14.36;43.33;97723.44;68000;1276;1016501;-67
2024/03/24 06:54:13;;;;;;;;;;;;;;;14.47;42.38;97730.98;68007;1276;1016635;-67
2024/03/24 06:57:15;;;;;;;;;;;;;;;14.51;42.48;97724.85;67968;1276;1016195;-62
2024/03/24 07:00:17;;;;;;;;;;;;;;;14.55;42.88;97729.03;67960;1276;1019230;-67
2024/03/24 07:03:20;;;;;;;;;;;;;;;14.60;42.36;97729.77;67922;1276;1016485;-67
2024/03/24 07:06:22;;;;;;;;;;;;;;;14.72;42.26;97730.79;68023;1276;1016531;-67
2024/03/24 07:09:25;;;;;;;;;;;;;;;14.81;41.72;97729.23;67980;1276;1016114;-66
2024/03/24 07:12:28;;;;;;;;;;;;;;;14.93;41.18;97736.20;67967;1276;1018029;-67
2024/03/24 07:15:30;;;;;;;;;;;;;;;14.85;40.63;97735.69;68004;1276;1016384;-67
2024/03/24 07:18:32;;;;;;;;;;;;;;;14.93;41.10;97735.19;68016;1276;1019832;-67
2024/03/24 07:21:34;;;;;;;;;;;;;;;14.94;40.96;97730.86;67966;1276;1016216;-62
2024/03/24 07:24:36;;;;;;;;;;;;;;;15.34;41.28;97727.30;68014;1276;1016449;-66
2024/03/24 07:27:39;;;;;;;;;;;;;;;15.28;40.43;97731.41;68016;1276;1016410;-64
2024/03/24 07:30:41;;;;;;;;;;;;;;;15.15;40.66;97734.27;67970;1276;1016487;-64
2024/03/24 07:33:43;;;;;;;;;;;;;;;15.09;40.15;97727.63;67960;1276;1016511;-65
2024/03/24 07:36:46;;;;;;;;;;;;;;;15.48;40.34;97724.16;67974;1276;1016286;-66
2024/03/24 07:39:48;;;;;;;;;;;;;;;16.01;39.92;97723.88;67970;1276;1016491;-66
2024/03/24 07:42:50;;;;;;;;;;;;;;;16.44;39.33;97728.73;67983;1276;1016261;-67
2024/03/24 07:45:52;;;;;;;;;;;;;;;16.53;38.56;97726.02;68015;1276;1016435;-67
2024/03/24 07:48:55;;;;;;;;;;;;;;;16.93;38.43;97728.67;67877;1276;1016223;-62
2024/03/24 07:51:57;;;;;;;;;;;;;;;17.11;37.77;97732.41;67977;1276;1016368;-67
2024/03/24 07:54:59;;;;;;;;;;;;;;;17.19;37.68;97734.02;67840;1276;1016479;-66
2024/03/24 07:58:01;;;;;;;;;;;;;;;17.32;37.16;97736.43;67905;1276;1016376;-67
2024/03/24 08:01:04;;;;;;;;;;;;;;;17.09;37.28;97738.10;67968;1276;1016543;-65
2024/03/24 08:04:07;;;;;;;;;;;;;;;17.37;37.46;97735.48;67985;1276;1016430;-64
2024/03/24 08:07:09;;;;;;;;;;;;;;;17.45;36.29;97735.92;67986;1276;1016683;-67
2024/03/24 08:10:12;;;;;;;;;;;;;;;17.25;36.03;97736.58;68009;1276;1017802;-67
2024/03/24 08:13:15;;;;;;;;;;;;;;;16.76;36.63;97736.35;67911;1276;1016075;-65
2024/03/24 08:16:17;;;;;;;;;;;;;;;16.78;36.88;97729.28;67903;1276;1015835;-63
2024/03/24 08:19:19;;;;;;;;;;;;;;;17.03;37.47;97720.86;67859;1276;1016220;-64
2024/03/24 08:22:22;;;;;;;;;;;;;;;17.20;36.82;97727.20;67871;1276;1015939;-67
2024/03/24 08:25:24;;;;;;;;;;;;;;;17.18;36.85;97730.48;67917;1276;1016101;-65
2024/03/24 08:28:26;;;;;;;;;;;;;;;17.72;36.29;97722.41;67953;1276;1016226;-67
2024/03/24 08:31:29;;;;;;;;;;;;;;;18.06;35.23;97718.44;67988;1276;1016476;-67
2024/03/24 08:34:31;;;;;;;;;;;;;;;17.53;34.83;97727.65;67992;1276;1016394;-67
2024/03/24 08:37:33;;;;;;;;;;;;;;;17.13;35.31;97724.24;67891;1276;1018561;-67
2024/03/24 08:40:35;;;;;;;;;;;;;;;16.90;35.29;97723.35;67997;1276;1016385;-67
2024/03/24 08:43:38;;;;;;;;;;;;;;;16.40;34.12;97729.48;67958;1276;1016375;-64
2024/03/24 08:46:40;;;;;;;;;;;;;;;16.17;34.84;97731.98;67943;1276;1016410;-66
2024/03/24 08:49:42;;;;;;;;;;;;;;;16.25;34.84;97727.93;67959;1276;1016430;-67
2024/03/24 08:52:45;;;;;;;;;;;;;;;16.66;35.07;97718.16;67945;1276;1016442;-64
2024/03/24 08:55:47;;;;;;;;;;;;;;;16.88;34.24;97708.80;67957;1276;1016151;-67
2024/03/24 08:58:49;;;;;;;;;;;;;;;17.45;33.98;97706.59;67993;1276;1015698;-67
2024/03/24 09:01:52;;;;;;;;;;;;;;;17.52;32.98;97705.11;67966;1276;1016388;-63
2024/03/24 09:04:54;;;;;;;;;;;;;;;17.46;32.84;97709.49;67882;1276;1016031;-67
2024/03/24 09:07:56;;;;;;;;;;;;;;;17.35;33.20;97704.30;67917;1276;1016724;-62
2024/03/24 09:10:58;;;;;;;;;;;;;;;17.70;34.19;97701.23;67846;1276;1017292;-67
2024/03/24 09:14:01;;;;;;;;;;;;;;;17.85;33.19;97709.03;67964;1276;1016301;-63
2024/03/24 09:17:03;;;;;;;;;;;;;;;17.65;32.35;97706.51;67941;1276;1016506;-64
2024/03/24 09:20:05;;;;;;;;;;;;;;;17.81;32.47;97695.99;67892;1273;1016287;-65
2024/03/24 09:23:07;;;;;;;;;;;;;;;17.72;32.13;97697.34;67960;1276;1016846;-66
2024/03/24 09:26:10;;;;;;;;;;;;;;;17.98;32.56;97695.01;68012;1276;1016228;-66
2024/03/24 09:29:12;;;;;;;;;;;;;;;18.23;32.09;97692.17;67978;1276;1016372;-67
2024/03/24 09:32:15;;;;;;;;;;;;;;;17.97;32.18;97696.92;67988;1276;1016149;-67
2024/03/24 09:35:17;;;;;;;;;;;;;;;18.02;32.09;97694.46;67970;1276;1016217;-64
2024/03/24 09:38:19;;;;;;;;;;;;;;;18.01;32.31;97692.30;67924;1276;1016359;-67
2024/03/24 09:41:22;;;;;;;;;;;;;;;18.43;32.38;97693.98;67940;1276;1016299;-67
2024/03/24 09:44:24;;;;;;;;;;;;;;;18.69;32.10;97688.09;67992;1276;1016303;-66
2024/03/24 09:47:26;;;;;;;;;;;;;;;19.10;31.66;97684.05;67992;1276;1016205;-62
2024/03/24 09:50:29;;;;;;;;;;;;;;;19.21;30.68;97678.73;68016;1276;1016227;-66
2024/03/24 09:53:31;;;;;;;;;;;;;;;19.01;31.20;97675.66;67967;1276;1016257;-63
2024/03/24 09:56:33;;;;;;;;;;;;;;;18.58;30.70;97684.31;67962;1276;1016202;-67
2024/03/24 09:59:35;;;;;;;;;;;;;;;18.08;31.20;97681.26;67918;1276;1016216;-67
2024/03/24 10:02:37;;;;;;;;;;;;;;;18.26;31.63;97682.11;67947;1276;1016400;-66
2024/03/24 10:05:40;;;;;;;;;;;;;;;17.96;31.08;97681.70;67940;1276;1016948;-67
2024/03/24 10:08:42;;;;;;;;;;;;;;;17.77;31.71;97672.96;67932;1276;1016475;-67
2024/03/24 10:11:44;;;;;;;;;;;;;;;17.76;31.74;97669.65;67987;1276;1016418;-67
2024/03/24 10:14:46;;;;;;;;;;;;;;;18.06;31.23;97668.02;67964;1276;1016280;-64
2024/03/24 10:17:49;;;;;;;;;;;;;;;18.15;30.54;97669.50;67985;1276;1015640;-67
2024/03/24 10:20:51;;;;;;;;;;;;;;;18.18;30.48;97658.95;67973;1276;1016404;-66
2024/03/24 10:23:53;;;;;;;;;;;;;;;17.96;30.71;97657.07;67938;1276;1018058;-67
2024/03/24 10:26:55;;;;;;;;;;;;;;;17.75;30.88;97660.89;67944;1276;1016826;-65
2024/03/24 10:29:57;;;;;;;;;;;;;;;17.48;31.29;97667.21;67960;1276;1016321;-67
2024/03/24 10:33:00;;;;;;;;;;;;;;;17.24;32.45;97668.91;67968;1276;1016461;-67
2024/03/24 10:36:03;;;;;;;;;;;;;;;17.41;32.88;97666.51;67948;1276;1016525;-67
2024/03/24 10:39:07;;;;;;;;;;;;;;;17.65;32.35;97663.04;67894;1276;1016148;-64
2024/03/24 10:42:10;;;;;;;;;;;;;;;17.79;31.54;97658.04;67929;1276;1016223;-67
2024/03/24 10:45:14;;;;;;;;;;;;;;;17.37;31.10;97664.59;67935;1276;1016229;-67
2024/03/24 10:48:16;;;;;;;;;;;;;;;17.47;32.31;97652.79;67947;1276;1016302;-66
2024/03/24 10:51:18;;;;;;;;;;;;;;;17.64;32.64;97657.86;67926;1276;1016868;-67
2024/03/24 10:54:20;;;;;;;;;;;;;;;17.28;31.82;97666.99;67911;1274;1018746;-67
2024/03/24 10:57:23;;;;;;;;;;;;;;;16.80;33.08;97673.27;67991;1276;1017758;-67
2024/03/24 11:00:28;;;;;;;;;;;;;;;16.68;33.29;97677.05;67973;1276;1016423;-67
2024/03/24 11:03:30;;;;;;;;;;;;;;;16.79;33.29;97673.97;67941;1276;1016416;-67
2024/03/24 11:06:32;;;;;;;;;;;;;;;16.86;33.90;97670.59;67956;1276;1016873;-67
2024/03/24 11:09:35;;;;;;;;;;;;;;;16.96;34.58;97668.88;67964;1276;1016037;-67
2024/03/24 11:12:37;;;;;;;;;;;;;;;17.23;34.76;97662.85;67893;1276;1016388;-64
2024/03/24 11:15:40;;;;;;;;;;;;;;;17.58;34.67;97654.28;67980;1276;1016446;-62
2024/03/24 11:18:43;;;;;;;;;;;;;;;17.75;34.13;97652.77;67875;1276;1017518;-62
2024/03/24 11:21:45;;;;;;;;;;;;;;;17.66;33.79;97653.91;67965;1276;1016642;-67
2024/03/24 11:24:47;;;;;;;;;;;;;;;18.10;34.08;97648.08;67984;1276;1016460;-62
2024/03/24 11:27:49;;;;;;;;;;;;;;;18.56;33.96;97642.88;67987;1276;1016368;-67
2024/03/24 11:30:53;;;;;;;;;;;;;;;18.96;33.70;97637.55;67964;1276;1016673;-67
2024/03/24 11:33:55;;;;;;;;;;;;;;;19.78;33.42;97639.65;67992;1276;1016161;-67
2024/03/24 11:36:57;;;;;;;;;;;;;;;20.30;32.74;97634.77;67987;1276;1015748;-62
2024/03/24 11:40:00;;;;;;;;;;;;;;;20.62;32.41;97628.12;67937;1276;1016403;-66
2024/03/24 11:43:02;;;;;;;;;;;;;;;20.75;31.93;97625.00;67927;1276;1018900;-67
2024/03/24 11:46:05;;;;;;;;;;;;;;;21.19;32.40;97622.45;67947;1276;1016710;-67
2024/03/24 11:49:07;;;;;;;;;;;;;;;21.33;32.19;97626.48;67937;1276;1016400;-63
2024/03/24 11:52:09;;;;;;;;;;;;;;;21.23;32.31;97624.55;67968;1276;1018473;-66
2024/03/24 11:55:11;;;;;;;;;;;;;;;21.45;31.99;97621.88;67980;1276;1018881;-66
2024/03/24 11:58:14;;;;;;;;;;;;;;;21.94;31.35;97620.11;67988;1276;1016477;-66
2024/03/24 12:01:16;;;;;;;;;;;;;;;22.13;30.80;97616.98;67951;1276;1016456;-66
2024/03/24 12:04:18;;;;;;;;;;;;;;;22.05;29.96;97613.13;67950;1274;1016277;-63
2024/03/24 12:07:20;;;;;;;;;;;;;;;21.85;30.20;97610.70;67912;1276;1016148;-67
2024/03/24 12:10:22;;;;;;;;;;;;;;;21.78;30.40;97607.45;67900;1276;1016452;-66
2024/03/24 12:13:25;;;;;;;;;;;;;;;21.72;30.11;97606.07;67915;1276;1018815;-66
2024/03/24 12:16:27;;;;;;;;;;;;;;;21.60;29.96;97608.65;67888;1276;1016244;-63
2024/03/24 12:19:29;;;;;;;;;;;;;;;21.59;30.74;97598.73;67979;1276;1016462;-64
2024/03/24 12:22:31;;;;;;;;;;;;;;;21.93;30.72;97596.79;67955;1276;1018514;-66
2024/03/24 12:25:33;;;;;;;;;;;;;;;22.09;30.14;97597.91;67961;1276;1016337;-67
2024/03/24 12:28:36;;;;;;;;;;;;;;;21.97;30.43;97592.34;67965;1276;1016328;-67
2024/03/24 12:31:38;;;;;;;;;;;;;;;22.06;29.97;97593.58;67901;1276;1016371;-64
2024/03/24 12:34:40;;;;;;;;;;;;;;;22.05;30.14;97591.61;67968;1276;1016274;-66
2024/03/24 12:37:42;;;;;;;;;;;;;;;22.51;29.81;97584.89;67941;1276;1016712;-67
2024/03/24 12:40:45;;;;;;;;;;;;;;;22.41;30.05;97584.52;67933;1276;1015941;-66
2024/03/24 12:43:47;;;;;;;;;;;;;;;22.42;29.55;97587.02;67881;1276;1016300;-66
2024/03/24 12:46:49;;;;;;;;;;;;;;;21.75;29.78;97584.30;67820;1276;1016318;-67
2024/03/24 12:49:52;;;;;;;;;;;;;;;21.08;30.55;97591.55;67900;1276;1016446;-66
2024/03/24 12:52:54;;;;;;;;;;;;;;;20.11;31.37;97605.55;67934;1276;1016074;-62
2024/03/24 12:55:56;;;;;;;;;;;;;;;18.55;33.66;97612.61;67912;1276;1016365;-66
2024/03/24 12:58:58;;;;;;;;;;;;;;;17.38;35.58;97623.83;67892;1276;1016416;-66
2024/03/24 13:02:01;;;;;;;;;;;;;;;16.71;36.71;97624.80;67944;1276;1016198;-67
2024/03/24 13:05:05;;;;;;;;;;;;;;;16.05;37.57;97629.13;67915;1276;1015865;-67
2024/03/24 13:08:07;;;;;;;;;;;;;;;15.91;36.76;97625.97;67919;1276;1017215;-65
2024/03/24 13:11:10;;;;;;;;;;;;;;;16.02;35.92;97617.65;67944;1276;1015991;-67
2024/03/24 13:14:15;;;;;;;;;;;;;;;16.26;36.42;97606.95;67915;1276;1016327;-67
2024/03/24 13:17:18;;;;;;;;;;;;;;;16.79;36.42;97598.96;67976;1276;1016140;-63
2024/03/24 13:20:20;;;;;;;;;;;;;;;17.26;36.07;97594.69;67975;1276;1016459;-67
2024/03/24 13:23:23;;;;;;;;;;;;;;;17.57;35.96;97598.73;67921;1276;1016827;-67
2024/03/24 13:26:25;;;;;;;;;;;;;;;17.71;35.62;97601.63;67944;1276;1016497;-67
2024/03/24 13:29:28;;;;;;;;;;;;;;;17.73;35.75;97597.13;67948;1276;1016115;-62
2024/03/24 13:32:30;;;;;;;;;;;;;;;17.74;35.99;97594.40;67987;1276;1016496;-64
2024/03/24 13:35:32;;;;;;;;;;;;;;;17.74;35.94;97600.08;67965;1276;1016369;-67
2024/03/24 13:38:34;;;;;;;;;;;;;;;17.53;36.28;97595.55;67981;1276;1016258;-67
2024/03/24 13:41:38;;;;;;;;;;;;;;;17.98;36.75;97588.16;67944;1276;1016454;-62
2024/03/24 13:44:40;;;;;;;;;;;;;;;18.23;35.72;97590.90;67917;1276;1016370;-62
2024/03/24 13:47:43;;;;;;;;;;;;;;;18.38;35.44;97589.11;67918;1276;1016403;-67
2024/03/24 13:50:45;;;;;;;;;;;;;;;18.39;35.00;97585.50;67901;1276;1016472;-67
2024/03/24 13:53:47;;;;;;;;;;;;;;;18.47;35.32;97583.25;67902;1276;1019575;-65
2024/03/24 13:56:52;;;;;;;;;;;;;;;18.18;35.75;97586.70;67969;1276;1016204;-67
2024/03/24 13:59:54;;;;;;;;;;;;;;;18.00;35.63;97589.98;67972;1276;1016064;-67
2024/03/24 14:02:57;;;;;;;;;;;;;;;17.63;36.62;97613.81;67925;1276;1016307;-67
2024/03/24 14:06:00;;;;;;;;;;;;;;;16.22;37.69;97642.55;67909;1276;1016311;-65
2024/03/24 14:09:02;;;;;;;;;;;;;;;15.24;39.09;97649.55;67940;1276;1016365;-62
2024/03/24 14:12:04;;;;;;;;;;;;;;;14.69;40.47;97645.59;67945;1276;1016221;-67
2024/03/24 14:15:09;;;;;;;;;;;;;;;14.49;40.85;97653.56;67941;1274;1015753;-67
2024/03/24 14:18:11;;;;;;;;;;;;;;;13.98;41.52;97663.30;67920;1276;1016430;-67
2024/03/24 14:21:13;;;;;;;;;;;;;;;13.55;41.70;97663.61;67904;1276;1016241;-68
2024/03/24 14:24:16;;;;;;;;;;;;;;;13.47;42.07;97639.70;67929;1276;1015998;-68
2024/03/24 14:27:18;;;;;;;;;;;;;;;13.95;41.17;97628.64;67950;1276;1016601;-63
2024/03/24 14:30:21;;;;;;;;;;;;;;;14.94;40.95;97623.63;67908;1276;1016051;-64
2024/03/24 14:33:23;;;;;;;;;;;;;;;15.78;39.55;97619.36;67917;1276;1016480;-68
2024/03/24 14:36:25;;;;;;;;;;;;;;;16.57;39.32;97615.27;67911;1276;1016459;-67
2024/03/24 14:39:28;;;;;;;;;;;;;;;17.40;38.10;97608.13;67877;1276;1016619;-63
2024/03/24 14:42:30;;;;;;;;;;;;;;;18.09;37.82;97597.31;67936;1276;1016184;-67
2024/03/24 14:45:32;;;;;;;;;;;;;;;18.44;36.67;97601.45;67966;1276;1016082;-66
2024/03/24 14:48:36;;;;;;;;;;;;;;;18.53;36.64;97598.16;67927;1276;1015846;-68
2024/03/24 14:51:39;;;;;;;;;;;;;;;18.30;36.20;97599.92;67957;1276;1016705;-62
2024/03/24 14:54:42;;;;;;;;;;;;;;;18.00;36.47;97589.66;67951;1276;1017764;-65
2024/03/24 14:57:59;;;;;;;;;;;;;;;17.99;36.92;97581.40;67910;1276;1015876;-62
2024/03/24 15:01:02;;;;;;;;;;;;;;;18.24;36.64;97577.36;67959;1276;1017001;-67
2024/03/24 15:04:04;;;;;;;;;;;;;;;18.68;36.40;97569.02;67925;1276;1016482;-65
2024/03/24 15:07:06;;;;;;;;;;;;;;;19.30;36.54;97558.18;67954;1276;1016413;-63
2024/03/24 15:10:09;;;;;;;;;;;;;;;19.71;36.44;97556.36;67968;1276;1016413;-66
2024/03/24 15:13:11;;;;;;;;;;;;;;;20.02;36.17;97555.57;67886;1276;1016159;-67
2024/03/24 15:16:13;;;;;;;;;;;;;;;20.37;36.21;97550.88;67916;1276;1016071;-67
2024/03/24 15:19:15;;;;;;;;;;;;;;;20.54;35.76;97540.05;67900;1276;1016090;-66
2024/03/24 15:22:19;;;;;;;;;;;;;;;20.08;37.04;97536.04;67914;1276;1016445;-65
2024/03/24 15:25:22;;;;;;;;;;;;;;;20.31;36.63;97539.50;67925;1276;1016329;-62
2024/03/24 15:28:25;;;;;;;;;;;;;;;20.28;36.23;97532.95;67852;1276;1016525;-67
2024/03/24 15:31:28;;;;;;;;;;;;;;;20.96;35.83;97531.23;67932;1276;1016475;-65